Time;durP1;ratioP1;P1;durP2;ratioP2;P2;SDS_P1;SDS_P2;PMS_P1;PMS_P2;Temp;Humidity;BMP_temperature;BMP_pressure;BME280_temperature;BME280_humidity;BME280_pressure;Samples;Min_cycle;Max_cycle;Signal;HPM_P1;HPM_P2
2022/06/29 00:01:28;;;;;;;7.57;6.93;;;17.80;99.90;;;;;;5063765;28;20213;-74
2022/06/29 00:03:55;;;;;;;7.78;7.05;;;17.80;99.90;;;;;;5090737;28;20697;-74
2022/06/29 00:06:22;;;;;;;6.28;5.40;;;17.70;99.90;;;;;;5089993;28;20244;-74
2022/06/29 00:08:49;;;;;;;8.55;6.13;;;17.70;99.90;;;;;;5090230;28;20267;-74
2022/06/29 00:11:16;;;;;;;6.28;5.15;;;17.60;99.90;;;;;;5090124;28;20202;-74
2022/06/29 00:13:43;;;;;;;7.35;5.45;;;17.60;99.90;;;;;;5090301;28;20225;-73
2022/06/29 00:16:11;;;;;;;6.88;4.65;;;17.70;99.90;;;;;;5077872;28;20575;-75
2022/06/29 00:18:38;;;;;;;5.72;3.92;;;17.60;99.90;;;;;;5088234;28;20209;-75
2022/06/29 00:21:05;;;;;;;3.92;3.50;;;17.60;99.90;;;;;;5090646;28;20205;-76
2022/06/29 00:23:32;;;;;;;3.38;3.08;;;17.60;99.90;;;;;;5090114;28;20278;-77
2022/06/29 00:25:59;;;;;;;4.72;2.58;;;17.60;99.90;;;;;;5090342;28;20639;-75
2022/06/29 00:28:26;;;;;;;4.72;3.25;;;17.40;99.90;;;;;;5089553;28;20622;-75
2022/06/29 00:30:53;;;;;;;6.60;3.25;;;17.50;99.90;;;;;;5090443;28;20206;-76
2022/06/29 00:33:21;;;;;;;4.13;2.88;;;17.50;99.90;;;;;;5089934;28;20294;-75
2022/06/29 00:35:49;;;;;;;4.93;2.33;;;17.40;99.90;;;;;;5090179;28;20255;-75
2022/06/29 00:38:16;;;;;;;4.88;3.28;;;17.30;99.90;;;;;;5089453;28;20673;-75
2022/06/29 00:40:43;;;;;;;5.28;3.45;;;17.30;99.90;;;;;;5089696;28;20734;-76
2022/06/29 00:43:10;;;;;;;4.70;3.45;;;17.30;99.90;;;;;;5089655;28;20217;-75
2022/06/29 00:45:37;;;;;;;4.30;3.10;;;17.30;99.90;;;;;;5090301;28;20251;-75
2022/06/29 00:48:04;;;;;;;8.32;3.10;;;17.30;99.90;;;;;;5090555;28;20254;-76
2022/06/29 00:50:34;;;;;;;6.93;3.13;;;17.30;99.90;;;;;;5090842;28;20212;-76
2022/06/29 00:53:04;;;;;;;5.28;4.20;;;17.30;99.90;;;;;;5093730;28;20700;-74
2022/06/29 00:55:32;;;;;;;3.47;3.15;;;17.30;99.90;;;;;;5093821;28;20258;-73
2022/06/29 00:58:03;;;;;;;2.58;2.38;;;17.20;99.90;;;;;;5093899;28;20202;-74
2022/06/29 01:00:30;;;;;;;4.63;4.13;;;17.10;99.90;;;;;;5093602;28;20296;-74
2022/06/29 01:03:00;;;;;;;5.43;2.88;;;17.10;99.90;;;;;;5093473;28;20202;-75
2022/06/29 01:05:28;;;;;;;4.47;3.97;;;17.10;99.90;;;;;;5093064;28;20287;-74
2022/06/29 01:07:58;;;;;;;8.40;2.97;;;17.10;99.90;;;;;;5093301;28;20382;-74
2022/06/29 01:10:26;;;;;;;3.28;2.28;;;17.00;99.90;;;;;;5093269;28;20211;-74
2022/06/29 01:12:53;;;;;;;5.45;2.92;;;17.00;99.90;;;;;;5093128;28;20229;-73
2022/06/29 01:15:21;;;;;;;3.70;2.60;;;17.00;99.90;;;;;;5087880;28;20267;-74
2022/06/29 01:17:48;;;;;;;3.25;2.40;;;17.00;99.90;;;;;;5084357;28;20669;-73
2022/06/29 01:20:15;;;;;;;4.13;2.88;;;17.00;99.90;;;;;;5092605;28;20202;-74
2022/06/29 01:22:44;;;;;;;4.03;2.78;;;17.00;99.90;;;;;;5092934;28;20206;-73
2022/06/29 01:25:11;;;;;;;6.00;2.33;;;17.00;99.90;;;;;;5092777;28;20262;-75
2022/06/29 01:27:38;;;;;;;4.35;3.10;;;16.90;99.90;;;;;;5093285;28;20209;-74
2022/06/29 01:30:08;;;;;;;3.90;2.55;;;16.90;99.90;;;;;;5093256;28;20685;-75
2022/06/29 01:32:38;;;;;;;6.07;2.55;;;16.90;99.90;;;;;;5093179;28;20236;-76
2022/06/29 01:35:07;;;;;;;4.35;2.92;;;16.90;99.90;;;;;;5092963;28;20202;-75
2022/06/29 01:37:34;;;;;;;5.45;2.72;;;16.80;99.90;;;;;;5065277;28;20201;-75
2022/06/29 01:40:03;;;;;;;3.10;2.58;;;16.80;99.90;;;;;;5093280;28;20250;-76
2022/06/29 01:42:30;;;;;;;5.35;2.85;;;16.80;99.90;;;;;;5092438;28;20222;-76
2022/06/29 01:44:57;;;;;;;3.50;2.33;;;16.80;99.90;;;;;;5092864;28;20209;-76
2022/06/29 01:47:24;;;;;;;8.40;3.45;;;16.70;99.90;;;;;;5092593;28;20202;-77
2022/06/29 01:49:51;;;;;;;7.85;3.05;;;16.50;99.90;;;;;;5092600;28;20228;-76
2022/06/29 01:52:19;;;;;;;3.50;3.20;;;16.40;99.90;;;;;;5091963;28;20214;-77
2022/06/29 01:54:46;;;;;;;4.25;2.10;;;16.40;99.90;;;;;;5092684;28;20255;-78
2022/06/29 01:57:14;;;;;;;4.57;2.67;;;16.50;99.90;;;;;;5092073;28;20734;-76
2022/06/29 01:59:41;;;;;;;7.90;3.35;;;16.60;99.90;;;;;;5064480;28;20205;-76
2022/06/29 02:02:08;;;;;;;3.70;2.90;;;16.50;99.90;;;;;;5092002;28;20206;-76
2022/06/29 02:04:35;;;;;;;5.88;2.50;;;16.40;99.90;;;;;;5092109;28;20285;-76
2022/06/29 02:07:03;;;;;;;3.95;2.53;;;16.50;99.90;;;;;;5092689;28;20263;-75
2022/06/29 02:09:30;;;;;;;2.35;2.10;;;16.40;99.90;;;;;;5091929;28;20235;-75
2022/06/29 02:11:57;;;;;;;4.13;3.05;;;16.30;99.90;;;;;;5092270;28;20254;-74
2022/06/29 02:14:25;;;;;;;6.55;2.67;;;16.30;99.90;;;;;;5091702;28;20233;-74
2022/06/29 02:16:52;;;;;;;2.20;2.00;;;16.30;99.90;;;;;;5077672;28;20612;-75
2022/06/29 02:19:19;;;;;;;9.90;2.30;;;16.30;99.90;;;;;;5091575;28;20259;-74
2022/06/29 02:21:46;;;;;;;3.25;2.13;;;16.40;99.90;;;;;;5092005;28;20213;-75
2022/06/29 02:24:13;;;;;;;2.05;1.85;;;16.30;99.90;;;;;;5091719;28;20198;-74
2022/06/29 02:26:40;;;;;;;8.00;2.28;;;16.40;99.90;;;;;;5091838;28;20216;-75
2022/06/29 02:29:07;;;;;;;4.57;2.13;;;16.40;99.90;;;;;;5092015;28;20206;-73
2022/06/29 02:37:04;;;;;;;2.88;2.50;;;16.40;99.90;;;;;;5081104;28;20242;-73
2022/06/29 02:39:31;;;;;;;2.47;2.20;;;16.50;99.90;;;;;;5083177;28;20211;-73
2022/06/29 02:41:58;;;;;;;4.68;2.63;;;16.50;99.90;;;;;;5085649;28;20258;-72
2022/06/29 02:44:25;;;;;;;2.45;2.00;;;16.40;99.90;;;;;;5091239;28;20275;-73
2022/06/29 02:46:53;;;;;;;3.38;2.28;;;16.30;99.90;;;;;;5091590;28;20575;-73
2022/06/29 02:49:20;;;;;;;3.85;2.30;;;16.30;99.90;;;;;;5076658;28;20251;-72
2022/06/29 02:51:47;;;;;;;8.40;2.72;;;16.20;99.90;;;;;;5091558;28;20644;-73
2022/06/29 02:54:14;;;;;;;3.38;2.40;;;16.20;99.90;;;;;;5090719;28;20737;-73
2022/06/29 02:56:41;;;;;;;4.38;2.10;;;16.10;99.90;;;;;;5091639;28;20617;-74
2022/06/29 02:59:08;;;;;;;3.15;2.25;;;16.20;99.90;;;;;;5090787;28;20665;-74
2022/06/29 03:01:35;;;;;;;3.58;2.63;;;16.20;99.90;;;;;;5091680;28;20267;-74
2022/06/29 03:04:03;;;;;;;4.18;2.20;;;16.20;99.90;;;;;;5091393;28;20205;-74
2022/06/29 03:06:31;;;;;;;2.00;1.67;;;16.10;99.90;;;;;;5076062;28;20563;-74
2022/06/29 03:08:58;;;;;;;4.75;2.45;;;16.10;99.90;;;;;;5091398;28;20209;-75
2022/06/29 03:11:25;;;;;;;6.47;3.00;;;16.20;99.90;;;;;;5090494;28;20209;-75
2022/06/29 03:13:51;;;;;;;2.90;2.58;;;16.20;99.90;;;;;;5090264;28;20654;-75
2022/06/29 03:16:18;;;;;;;2.75;2.45;;;16.20;99.90;;;;;;5090533;28;20205;-75
2022/06/29 03:18:45;;;;;;;3.97;2.80;;;16.20;99.90;;;;;;5090849;28;20262;-75
2022/06/29 03:21:14;;;;;;;4.10;2.40;;;16.20;99.90;;;;;;5090404;28;20266;-75
2022/06/29 03:23:41;;;;;;;4.47;2.13;;;16.10;99.90;;;;;;5091189;28;20205;-74
2022/06/29 03:26:08;;;;;;;4.65;2.40;;;16.10;99.90;;;;;;5090827;28;20206;-74
2022/06/29 03:28:35;;;;;;;2.90;2.25;;;16.10;99.90;;;;;;5090802;28;20632;-74
2022/06/29 03:31:02;;;;;;;5.05;3.17;;;16.00;99.90;;;;;;5091245;28;20259;-74
2022/06/29 03:33:29;;;;;;;6.40;2.95;;;15.90;99.90;;;;;;5090009;28;20221;-75
2022/06/29 03:35:56;;;;;;;3.20;2.03;;;15.90;99.90;;;;;;5091046;28;20266;-74
2022/06/29 03:38:25;;;;;;;5.55;2.97;;;16.00;99.90;;;;;;5089064;28;20673;-75
2022/06/29 03:40:52;;;;;;;3.25;2.40;;;16.00;99.90;;;;;;5077866;28;20227;-75
2022/06/29 03:43:19;;;;;;;5.60;3.03;;;16.00;99.90;;;;;;5090525;28;20609;-74
2022/06/29 03:45:47;;;;;;;4.70;2.80;;;15.90;99.90;;;;;;5090683;28;20201;-75
2022/06/29 03:48:15;;;;;;;3.08;2.80;;;15.90;99.90;;;;;;5090032;28;20619;-75
2022/06/29 03:50:42;;;;;;;3.10;2.70;;;15.80;99.90;;;;;;5090604;28;20357;-75
2022/06/29 03:53:09;;;;;;;4.70;2.75;;;15.70;99.90;;;;;;5078411;28;20222;-75
2022/06/29 03:55:37;;;;;;;5.13;2.33;;;15.70;99.90;;;;;;5075929;28;20335;-75
2022/06/29 03:58:05;;;;;;;4.18;2.50;;;15.70;99.90;;;;;;5090017;28;20290;-75
2022/06/29 04:00:32;;;;;;;2.83;2.42;;;15.60;99.90;;;;;;5085358;28;20209;-74
2022/06/29 04:02:59;;;;;;;2.55;2.30;;;15.70;99.90;;;;;;5090943;28;20970;-75
2022/06/29 04:05:26;;;;;;;5.25;2.22;;;15.70;99.90;;;;;;5090011;28;20626;-74
2022/06/29 04:07:53;;;;;;;3.80;2.35;;;15.60;99.90;;;;;;5090639;28;20201;-75
2022/06/29 04:10:20;;;;;;;2.75;2.45;;;15.60;99.90;;;;;;5088815;28;20375;-74
2022/06/29 04:12:48;;;;;;;6.10;2.70;;;15.60;99.90;;;;;;5088257;28;20201;-75
2022/06/29 04:15:15;;;;;;;3.25;2.63;;;15.60;99.90;;;;;;5090015;28;20237;-75
2022/06/29 04:17:42;;;;;;;4.13;3.10;;;15.60;99.90;;;;;;5088744;28;20251;-76
2022/06/29 04:21:05;;;;;;;3.17;2.58;;;15.60;99.90;;;;;;5070195;28;20247;-75
2022/06/29 04:22:57;;;;;;;6.35;2.88;;;15.60;99.90;;;;;;5071438;28;20666;-75
2022/06/29 04:25:24;;;;;;;3.63;2.78;;;15.60;99.90;;;;;;5073838;28;20267;-75
2022/06/29 04:27:52;;;;;;;3.38;2.50;;;15.60;99.90;;;;;;5077409;28;20270;-75
2022/06/29 04:30:19;;;;;;;3.22;2.92;;;15.60;99.90;;;;;;5075980;28;20206;-75
2022/06/29 04:32:46;;;;;;;2.85;2.42;;;15.60;99.90;;;;;;5077043;28;20823;-74
2022/06/29 04:35:13;;;;;;;3.22;2.80;;;15.50;99.90;;;;;;5075307;28;20652;-75
2022/06/29 04:37:40;;;;;;;3.65;2.40;;;15.50;99.90;;;;;;5077208;28;20214;-74
2022/06/29 04:40:08;;;;;;;5.68;2.40;;;15.40;99.90;;;;;;5074554;28;20272;-75
2022/06/29 04:42:35;;;;;;;3.17;2.65;;;15.40;99.90;;;;;;5074227;28;20222;-74
2022/06/29 04:45:04;;;;;;;5.47;3.10;;;15.50;99.90;;;;;;5075479;28;20232;-75
2022/06/29 04:47:31;;;;;;;6.57;2.58;;;15.50;99.90;;;;;;5061556;28;20202;-74
2022/06/29 04:49:58;;;;;;;4.57;2.80;;;15.50;99.90;;;;;;5074983;28;20670;-74
2022/06/29 04:52:25;;;;;;;3.03;2.70;;;15.50;99.90;;;;;;5076602;28;20214;-74
2022/06/29 04:54:52;;;;;;;4.25;2.97;;;15.60;99.90;;;;;;5071660;28;20743;-74
2022/06/29 04:57:19;;;;;;;5.68;3.55;;;15.70;99.90;;;;;;5071661;28;20999;-76
2022/06/29 04:59:46;;;;;;;3.80;2.97;;;15.70;99.90;;;;;;5075521;28;20203;-74
2022/06/29 05:02:15;;;;;;;5.07;3.17;;;15.70;99.90;;;;;;5076885;28;20202;-74
2022/06/29 05:04:42;;;;;;;4.57;3.15;;;15.70;99.90;;;;;;5076628;28;20217;-75
2022/06/29 05:07:08;;;;;;;5.88;3.22;;;15.80;99.90;;;;;;5072442;28;20202;-75
2022/06/29 05:09:35;;;;;;;3.58;3.05;;;15.80;99.90;;;;;;5071447;28;20658;-74
2022/06/29 05:12:03;;;;;;;5.53;2.47;;;15.80;99.90;;;;;;5071447;28;20228;-75
2022/06/29 05:14:29;;;;;;;4.53;2.90;;;15.90;99.90;;;;;;5073025;28;20240;-77
2022/06/29 05:16:56;;;;;;;5.50;3.20;;;16.00;99.90;;;;;;5072522;28;20210;-76
2022/06/29 05:19:25;;;;;;;4.70;2.85;;;16.00;99.90;;;;;;5072636;28;20662;-75
2022/06/29 05:21:52;;;;;;;4.47;3.10;;;16.10;99.90;;;;;;5072344;28;20579;-78
2022/06/29 05:24:19;;;;;;;9.50;4.20;;;16.20;99.90;;;;;;5072568;28;20542;-76
2022/06/29 05:26:45;;;;;;;6.57;4.63;;;16.30;99.90;;;;;;5072500;28;20263;-77
2022/06/29 05:29:12;;;;;;;9.68;6.97;;;16.30;99.90;;;;;;5072761;28;20251;-78
2022/06/29 05:31:39;;;;;;;8.65;6.00;;;16.40;99.90;;;;;;5071958;28;20206;-76
2022/06/29 05:34:06;;;;;;;10.82;5.50;;;16.40;99.90;;;;;;5072224;28;20226;-74
2022/06/29 05:36:35;;;;;;;9.05;5.75;;;16.40;99.90;;;;;;5072000;28;20259;-76
2022/06/29 05:39:02;;;;;;;10.00;6.93;;;16.50;99.90;;;;;;5072570;28;20206;-76
2022/06/29 05:41:29;;;;;;;9.98;5.43;;;16.50;99.90;;;;;;5084954;28;20263;-75
2022/06/29 05:43:56;;;;;;;11.18;4.53;;;16.60;99.90;;;;;;5092354;28;20206;-72
2022/06/29 05:46:22;;;;;;;8.07;6.57;;;16.70;99.90;;;;;;5092889;28;20201;-72
2022/06/29 05:48:49;;;;;;;10.85;6.15;;;16.80;99.90;;;;;;5088120;28;20212;-73
2022/06/29 05:51:16;;;;;;;12.05;5.55;;;16.90;99.90;;;;;;5070560;28;20723;-72
2022/06/29 05:53:45;;;;;;;7.25;4.38;;;17.00;99.90;;;;;;5092531;28;20225;-72
2022/06/29 05:56:12;;;;;;;8.15;4.13;;;17.10;99.90;;;;;;5092681;28;20197;-72
2022/06/29 05:58:39;;;;;;;9.68;4.63;;;17.20;99.90;;;;;;5092851;28;20209;-73
2022/06/29 06:01:08;;;;;;;8.23;4.78;;;17.30;99.90;;;;;;5092490;28;20201;-72
2022/06/29 06:03:36;;;;;;;9.70;3.60;;;17.30;99.90;;;;;;5092633;28;20212;-72
2022/06/29 06:06:03;;;;;;;7.75;4.10;;;17.40;99.90;;;;;;5091727;28;20205;-72
2022/06/29 06:08:30;;;;;;;8.93;4.25;;;17.50;99.90;;;;;;5092272;28;20745;-71
2022/06/29 06:10:58;;;;;;;7.97;3.42;;;17.60;99.90;;;;;;5091800;28;20722;-73
2022/06/29 06:13:25;;;;;;;5.55;4.10;;;17.70;99.90;;;;;;5082915;28;20565;-73
2022/06/29 06:15:52;;;;;;;11.55;4.03;;;17.80;99.90;;;;;;5062405;28;20238;-76
2022/06/29 06:18:20;;;;;;;5.95;3.72;;;17.90;99.90;;;;;;5092276;28;20205;-71
2022/06/29 06:20:47;;;;;;;5.50;2.60;;;17.90;99.90;;;;;;5089505;28;20288;-73
2022/06/29 06:23:14;;;;;;;6.95;3.10;;;18.00;99.90;;;;;;5077818;28;20202;-75
2022/06/29 06:25:41;;;;;;;6.45;2.78;;;18.10;99.90;;;;;;5090774;28;20205;-75
2022/06/29 06:28:10;;;;;;;5.38;3.15;;;18.20;99.90;;;;;;5084117;28;20197;-73
2022/06/29 06:30:37;;;;;;;9.63;2.97;;;18.30;99.90;;;;;;5088847;28;20666;-76
2022/06/29 06:33:04;;;;;;;4.93;3.50;;;18.40;99.90;;;;;;5085173;28;20263;-73
2022/06/29 06:35:32;;;;;;;6.72;3.85;;;18.50;99.90;;;;;;5083275;28;20230;-72
2022/06/29 06:37:58;;;;;;;9.32;3.35;;;18.60;99.90;;;;;;5087034;28;20201;-74
2022/06/29 06:43:11;;;;;;;6.68;3.50;;;18.80;99.90;;;;;;5070990;28;20216;-73
2022/06/29 06:45:38;;;;;;;6.28;2.78;;;18.80;99.90;;;;;;5071487;28;20256;-73
2022/06/29 06:48:06;;;;;;;7.50;3.50;;;18.90;99.90;;;;;;5070158;28;20202;-72
2022/06/29 06:50:33;;;;;;;9.30;2.88;;;19.00;99.90;;;;;;5071320;28;20677;-72
2022/06/29 06:53:01;;;;;;;3.75;2.55;;;19.10;99.90;;;;;;5067581;28;20209;-74
2022/06/29 06:55:28;;;;;;;4.85;2.30;;;19.20;99.90;;;;;;5068615;28;20237;-73
2022/06/29 06:57:55;;;;;;;3.05;2.15;;;19.40;99.90;;;;;;5070899;28;20210;-73
2022/06/29 07:00:23;;;;;;;8.00;2.50;;;19.50;99.90;;;;;;5070979;28;20275;-73
2022/06/29 07:02:50;;;;;;;2.42;1.88;;;19.60;99.90;;;;;;5070796;28;20287;-73
2022/06/29 07:05:17;;;;;;;4.22;2.88;;;19.50;99.90;;;;;;5070981;28;20202;-73
2022/06/29 07:07:44;;;;;;;7.93;3.15;;;19.60;99.90;;;;;;5070795;28;20206;-73
2022/06/29 07:10:11;;;;;;;4.30;2.78;;;19.70;99.90;;;;;;5065589;28;20255;-73
2022/06/29 07:12:38;;;;;;;6.50;2.95;;;19.80;99.90;;;;;;5070765;28;20210;-71
2022/06/29 07:15:06;;;;;;;4.70;2.85;;;20.10;99.90;;;;;;5068142;28;20261;-70
2022/06/29 07:17:34;;;;;;;3.00;2.13;;;21.00;99.90;;;;;;5061137;28;20629;-71
2022/06/29 07:20:01;;;;;;;5.45;2.08;;;20.60;99.90;;;;;;5072290;28;20303;-75
2022/06/29 07:22:29;;;;;;;4.18;2.03;;;20.60;99.90;;;;;;5072167;28;20214;-71
2022/06/29 07:24:56;;;;;;;3.70;2.00;;;20.50;99.90;;;;;;5074300;28;20647;-71
2022/06/29 07:27:22;;;;;;;3.83;1.95;;;20.50;99.90;;;;;;5055663;28;20695;-73
2022/06/29 07:29:52;;;;;;;3.90;2.47;;;20.50;99.90;;;;;;5077185;28;20202;-74
2022/06/29 07:32:19;;;;;;;3.35;3.03;;;20.60;99.90;;;;;;5088238;28;20217;-71
2022/06/29 07:34:48;;;;;;;2.40;1.88;;;20.70;99.90;;;;;;5088350;28;20221;-71
2022/06/29 07:37:15;;;;;;;2.83;1.80;;;20.80;99.90;;;;;;5089156;28;20664;-71
2022/06/29 07:39:42;;;;;;;4.72;2.38;;;21.00;99.90;;;;;;5073368;28;20263;-70
2022/06/29 07:42:09;;;;;;;4.53;2.13;;;21.10;99.90;;;;;;5071984;28;20213;-71
2022/06/29 07:44:36;;;;;;;3.70;2.33;;;21.20;99.90;;;;;;5087605;28;20210;-72
2022/06/29 07:47:03;;;;;;;3.15;1.95;;;21.20;99.90;;;;;;5085224;28;20262;-71
2022/06/29 07:49:30;;;;;;;9.32;2.60;;;21.50;99.90;;;;;;5080048;28;20731;-70
2022/06/29 07:51:58;;;;;;;3.45;1.98;;;21.50;99.90;;;;;;5070659;28;20700;-71
2022/06/29 07:54:26;;;;;;;6.78;2.28;;;21.60;99.90;;;;;;5071751;28;20230;-70
2022/06/29 07:56:53;;;;;;;2.80;1.70;;;21.80;99.90;;;;;;5072348;28;20673;-71
2022/06/29 07:59:20;;;;;;;7.25;2.20;;;21.90;99.90;;;;;;5073365;28;20198;-71
2022/06/29 08:01:47;;;;;;;3.00;1.70;;;22.10;99.90;;;;;;5076607;28;20279;-72
2022/06/29 08:04:14;;;;;;;4.13;1.95;;;22.10;99.90;;;;;;5073619;28;20692;-73
2022/06/29 08:06:41;;;;;;;1.67;1.38;;;22.20;99.90;;;;;;5077960;28;20662;-71
2022/06/29 08:09:10;;;;;;;5.28;2.28;;;22.20;99.90;;;;;;5081994;28;20205;-72
2022/06/29 08:11:37;;;;;;;3.45;1.95;;;22.40;99.90;;;;;;5078702;28;20216;-73
2022/06/29 08:14:04;;;;;;;1.63;1.50;;;23.00;99.90;;;;;;5083251;28;20734;-75
2022/06/29 08:16:31;;;;;;;6.65;2.00;;;23.10;99.90;;;;;;5079122;28;20279;-71
2022/06/29 08:18:58;;;;;;;4.53;2.13;;;23.20;99.90;;;;;;5083468;28;20278;-71
2022/06/29 08:21:25;;;;;;;3.25;1.65;;;23.40;99.90;;;;;;5080802;28;20279;-73
2022/06/29 08:23:51;;;;;;;2.25;1.95;;;23.30;99.90;;;;;;5084152;28;20197;-71
2022/06/29 08:26:20;;;;;;;4.35;2.60;;;23.00;99.90;;;;;;5083477;28;20618;-70
2022/06/29 08:28:47;;;;;;;2.88;2.33;;;23.00;99.90;;;;;;5084539;28;20247;-71
2022/06/29 08:31:14;;;;;;;6.13;2.63;;;23.30;99.90;;;;;;5086290;28;20684;-73
2022/06/29 08:33:42;;;;;;;3.30;2.33;;;23.40;99.90;;;;;;5084438;28;20597;-70
2022/06/29 08:36:09;;;;;;;4.40;1.80;;;23.30;99.90;;;;;;5073797;28;20239;-71
2022/06/29 08:38:36;;;;;;;4.55;2.30;;;23.30;99.90;;;;;;5073851;28;20202;-71
2022/06/29 08:41:03;;;;;;;3.30;2.08;;;23.50;99.90;;;;;;5082445;28;20209;-70
2022/06/29 08:43:32;;;;;;;3.55;1.73;;;23.70;99.90;;;;;;5094117;28;20213;-71
2022/06/29 08:45:59;;;;;;;3.53;2.08;;;24.30;99.90;;;;;;5093691;28;20590;-70
2022/06/29 08:48:26;;;;;;;6.35;2.15;;;24.50;99.90;;;;;;5093771;28;20661;-71
2022/06/29 08:50:54;;;;;;;3.60;2.05;;;25.00;99.90;;;;;;5093730;28;20209;-69
2022/06/29 08:53:23;;;;;;;5.25;2.13;;;26.40;99.90;;;;;;5094005;28;20208;-71
2022/06/29 08:55:52;;;;;;;4.25;2.17;;;26.20;99.90;;;;;;5093328;28;20713;-70
2022/06/29 08:58:21;;;;;;;2.72;1.80;;;26.10;99.90;;;;;;5093829;28;20259;-70
2022/06/29 09:00:51;;;;;;;3.97;2.03;;;26.20;99.90;;;;;;5093084;28;20235;-73
2022/06/29 09:03:18;;;;;;;4.45;2.35;;;26.30;99.90;;;;;;5093723;28;20678;-70
2022/06/29 09:05:48;;;;;;;4.63;1.73;;;26.10;99.90;;;;;;5088231;28;20589;-69
2022/06/29 09:08:15;;;;;;;3.60;1.35;;;25.70;99.90;;;;;;5080964;28;20711;-69
2022/06/29 09:10:42;;;;;;;5.43;2.08;;;26.20;99.90;;;;;;5092806;28;20259;-70
2022/06/29 09:13:09;;;;;;;3.08;1.95;;;26.10;99.90;;;;;;5092832;28;20251;-70
2022/06/29 09:15:38;;;;;;;1.98;1.55;;;25.50;99.90;;;;;;5093341;28;20229;-74
2022/06/29 09:18:24;;;;;;;5.32;2.13;;;26.50;99.90;;;;;;5092717;28;20229;-72
2022/06/29 09:20:54;;;;;;;3.15;1.25;;;27.60;99.90;;;;;;5092907;28;20259;-70
2022/06/29 09:23:21;;;;;;;2.97;1.30;;;27.90;99.90;;;;;;5093431;28;20289;-70
2022/06/29 09:25:49;;;;;;;3.65;2.10;;;29.20;99.90;;;;;;5092743;28;20568;-70
2022/06/29 09:28:20;;;;;;;2.83;2.03;;;30.80;99.90;;;;;;5093125;28;20259;-70
2022/06/29 09:30:47;;;;;;;2.33;1.58;;;32.90;99.90;;;;;;5093081;28;20216;-71
2022/06/29 09:33:16;;;;;;;3.00;1.45;;;34.00;99.90;;;;;;5092920;28;20214;-70
2022/06/29 09:35:43;;;;;;;2.53;1.63;;;35.50;99.90;;;;;;5093473;28;20232;-69
2022/06/29 09:38:21;;;;;;;2.90;1.50;;;36.20;99.90;;;;;;5092722;28;20284;-69
2022/06/29 09:41:06;;;;;;;1.58;1.40;;;34.70;99.90;;;;;;5066161;28;20257;-70
2022/06/29 09:43:35;;;;;;;2.05;1.80;;;36.20;99.90;;;;;;5092837;28;20217;-71
2022/06/29 09:46:03;;;;;;;2.90;1.40;;;35.30;99.90;;;;;;5092491;28;20269;-70
2022/06/29 09:48:33;;;;;;;2.30;1.58;;;36.70;99.90;;;;;;5092508;28;20201;-70
2022/06/29 09:51:00;;;;;;;2.63;2.25;;;32.50;99.90;;;;;;5092531;28;20201;-71
2022/06/29 09:53:37;;;;;;;4.03;1.77;;;31.00;99.90;;;;;;5091973;28;20278;-70
2022/06/29 09:56:06;;;;;;;4.70;1.40;;;31.90;99.90;;;;;;5087064;28;20224;-70
2022/06/29 09:58:41;;;;;;;3.70;2.03;;;33.60;99.90;;;;;;5090082;28;20664;-71
2022/06/29 10:03:56;;;;;;;2.30;1.45;;;31.40;99.90;;;;;;5090001;28;20208;-70
2022/06/29 10:06:23;;;;;;;4.10;1.73;;;31.50;99.90;;;;;;5083936;28;20206;-72
2022/06/29 10:08:51;;;;;;;5.75;2.63;;;34.90;99.90;;;;;;5075263;28;20661;-70
2022/06/29 10:14:24;;;;;;;2.90;1.90;;;36.80;99.90;;;;;;5072665;28;20224;-71
2022/06/29 10:16:56;;;;;;;1.60;1.50;;;36.30;99.90;;;;;;5071723;28;20638;-71
2022/06/29 10:19:46;;;;;;;1.92;1.33;;;37.10;99.90;;;;;;5071716;28;20254;-72
2022/06/29 10:22:13;;;;;;;2.10;1.90;;;35.80;99.90;;;;;;5073228;28;20202;-70
2022/06/29 10:25:00;;;;;;;1.60;1.50;;;36.80;99.90;;;;;;5074252;28;20197;-72
2022/06/29 10:27:27;;;;;;;4.00;1.73;;;39.70;99.90;;;;;;5073431;28;20681;-71
2022/06/29 10:30:21;;;;;;;2.10;1.52;;;40.20;99.90;;;;;;5073653;28;20228;-71
2022/06/29 10:32:49;;;;;;;4.93;1.80;;;40.80;99.90;;;;;;5067715;28;20288;-70
2022/06/29 10:35:18;;;;;;;4.70;1.88;;;41.10;99.90;;;;;;5071334;28;20644;-70
2022/06/29 10:37:50;;;;;;;2.47;1.70;;;41.40;99.90;;;;;;5076923;28;20615;-72
2022/06/29 10:40:19;;;;;;;2.45;1.88;;;36.50;99.90;;;;;;5067605;28;20204;-70
2022/06/29 10:45:43;;;;;;;3.88;2.15;;;28.10;99.90;;;;;;5072963;28;20247;-73
2022/06/29 10:48:20;;;;;;;2.65;1.65;;;27.70;99.90;;;;;;5071563;28;20197;-76
2022/06/29 10:50:48;;;;;;;2.03;1.67;;;27.70;99.90;;;;;;5071625;28;20284;-71
2022/06/29 10:53:18;;;;;;;2.38;2.10;;;27.70;99.90;;;;;;5073076;28;20205;-71
2022/06/29 10:55:47;;;;;;;2.72;1.77;;;27.20;99.90;;;;;;5070583;28;20674;-72
2022/06/29 10:58:14;;;;;;;4.03;1.52;;;27.40;99.90;;;;;;5074231;28;20233;-71
2022/06/29 11:00:42;;;;;;;4.53;2.10;;;27.00;99.90;;;;;;5071945;28;20629;-74
2022/06/29 11:03:12;;;;;;;1.95;1.70;;;27.30;99.90;;;;;;5074956;28;20206;-74
2022/06/29 11:12:01;;;;;;;6.22;3.38;;;27.20;99.90;;;;;;5070715;28;20262;-71
2022/06/29 11:14:04;;;;;;;6.63;2.92;;;27.60;99.90;;;;;;5071298;28;20692;-74
2022/06/29 11:16:34;;;;;;;4.90;2.83;;;27.00;99.90;;;;;;5070825;28;20273;-71
2022/06/29 11:19:01;;;;;;;2.10;1.90;;;27.40;99.90;;;;;;5076818;28;20206;-74
2022/06/29 11:21:32;;;;;;;1.67;1.55;;;27.40;99.90;;;;;;5070793;28;20206;-68
2022/06/29 11:24:05;;;;;;;2.78;1.88;;;27.40;99.90;;;;;;5071271;28;20210;-71
2022/06/29 11:26:34;;;;;;;2.00;1.42;;;27.80;99.90;;;;;;5071685;28;20206;-71
2022/06/29 11:29:02;;;;;;;1.45;1.35;;;27.80;99.90;;;;;;5075460;28;20210;-80
2022/06/29 11:31:29;;;;;;;2.60;1.35;;;27.80;99.90;;;;;;5070818;28;20209;-70
2022/06/29 11:33:56;;;;;;;6.18;1.67;;;27.90;99.90;;;;;;5062108;28;20662;-69
2022/06/29 11:36:26;;;;;;;2.03;1.58;;;27.90;99.90;;;;;;5069013;28;20315;-72
2022/06/29 11:38:55;;;;;;;2.83;1.70;;;28.20;99.90;;;;;;5074432;28;20206;-69
2022/06/29 11:41:26;;;;;;;2.95;1.30;;;28.10;99.90;;;;;;5072889;28;20226;-69
2022/06/29 11:44:04;;;;;;;2.17;1.75;;;28.30;99.90;;;;;;5057717;28;20205;-75
2022/06/29 11:46:35;;;;;;;2.85;1.63;;;28.20;99.90;;;;;;5074791;28;20254;-72
2022/06/29 11:51:52;;;;;;;2.35;2.15;;;28.20;99.90;;;;;;5077087;28;20602;-69
2022/06/29 11:54:19;;;;;;;1.70;1.60;;;28.10;99.90;;;;;;5081233;28;20677;-72
2022/06/29 11:56:50;;;;;;;2.92;1.55;;;27.90;99.90;;;;;;5086281;28;20270;-69
2022/06/29 11:59:18;;;;;;;2.75;1.55;;;28.30;99.90;;;;;;5083551;28;20739;-71
2022/06/29 12:01:52;;;;;;;3.28;1.40;;;27.80;99.90;;;;;;5087659;28;20312;-70
2022/06/29 12:04:30;;;;;;;4.30;1.65;;;27.90;99.90;;;;;;5072154;28;20301;-69
2022/06/29 12:07:05;;;;;;;1.95;1.42;;;28.10;99.90;;;;;;5086165;28;20264;-76
2022/06/29 12:09:33;;;;;;;2.47;1.95;;;27.80;99.90;;;;;;5084685;28;20204;-69
2022/06/29 12:12:02;;;;;;;3.10;1.58;;;28.00;99.90;;;;;;5087313;28;20262;-69
2022/06/29 12:14:29;;;;;;;1.50;1.13;;;27.80;99.90;;;;;;5074703;28;20202;-74
2022/06/29 12:16:56;;;;;;;1.85;1.20;;;27.80;99.90;;;;;;5089147;28;20286;-74
2022/06/29 12:19:23;;;;;;;2.35;1.48;;;28.10;99.90;;;;;;5088363;28;20201;-75
2022/06/29 12:21:50;;;;;;;1.95;1.65;;;28.40;99.90;;;;;;5089521;28;20210;-72
2022/06/29 12:24:18;;;;;;;3.05;2.00;;;28.60;99.90;;;;;;5075138;28;20368;-72
2022/06/29 12:26:45;;;;;;;3.80;1.67;;;28.70;99.90;;;;;;5078977;28;20206;-72
2022/06/29 12:29:14;;;;;;;3.17;2.55;;;28.40;99.90;;;;;;5073565;28;20729;-75
2022/06/29 12:31:42;;;;;;;2.55;1.55;;;28.40;99.90;;;;;;5062377;28;20202;-69
2022/06/29 12:34:09;;;;;;;4.38;1.63;;;28.30;99.90;;;;;;5081391;28;20201;-69
2022/06/29 12:36:36;;;;;;;5.28;1.50;;;28.10;99.90;;;;;;5079032;28;20270;-73
2022/06/29 12:39:03;;;;;;;2.65;1.25;;;28.00;99.90;;;;;;5076944;28;20206;-71
2022/06/29 12:41:31;;;;;;;2.28;1.30;;;28.10;99.90;;;;;;5069905;28;20211;-73
2022/06/29 12:43:59;;;;;;;2.08;1.58;;;28.50;99.90;;;;;;5072507;28;20666;-75
2022/06/29 12:46:28;;;;;;;2.42;1.17;;;28.20;99.90;;;;;;5073944;28;20216;-71
2022/06/29 12:48:55;;;;;;;1.35;1.25;;;28.10;99.90;;;;;;5078458;28;20229;-72
2022/06/29 12:51:22;;;;;;;2.20;1.20;;;28.00;99.90;;;;;;5071732;28;20213;-71
2022/06/29 12:53:49;;;;;;;2.72;1.20;;;28.20;99.90;;;;;;5077435;28;20276;-70
2022/06/29 12:56:17;;;;;;;2.38;1.45;;;28.50;99.90;;;;;;5072654;28;20225;-74
2022/06/29 12:58:44;;;;;;;3.22;1.83;;;28.70;99.90;;;;;;5072071;28;20294;-70
2022/06/29 13:01:12;;;;;;;1.52;1.42;;;28.90;99.90;;;;;;5073430;28;20208;-69
2022/06/29 13:03:40;;;;;;;1.95;1.30;;;28.00;99.90;;;;;;5073349;28;20634;-69
2022/06/29 13:06:07;;;;;;;3.58;2.15;;;28.10;99.90;;;;;;5072111;28;20242;-69
2022/06/29 13:08:34;;;;;;;5.07;2.15;;;28.70;99.90;;;;;;5059683;28;20292;-69
2022/06/29 13:11:01;;;;;;;1.95;1.50;;;28.90;99.90;;;;;;5070040;28;20239;-70
2022/06/29 13:13:29;;;;;;;2.13;1.63;;;28.90;99.90;;;;;;5072070;28;20279;-70
2022/06/29 13:15:56;;;;;;;7.57;1.70;;;29.10;99.90;;;;;;5070940;28;20202;-69